Lindenwood, Illinois
Current Conditions -  °F | °C
As of 5:15 PM on Wednesday 17 Dec 2014 (Local Time) from KRPJ Reporting Station
Overcast Overcast  
Wind Chill: -10°   Ceiling: 2000
Heat Index: -5°   Visibility: 10mi
Dew Point: -8°   Wind: 8mph
Humidity: 78%   Direction: 330°NNW
Pressure: 30.27"   Gusts: NA
Location:  42.05°N, 89.03°W
Report Text: KRPJ 172315Z AUTO 33007KT 10SM OVC020 M05/M08 A3027 RMK AO2 T10501083
Loading
Personal Weather Stations






























Interactive Weather Map New forecast layout! Learn more

10-Day Weather Forecast

Advertisements
Track Severe Weather on mobile